createdAt,value
2019-04-28T00:01:17.178Z,95985.70
2019-04-28T00:03:48.684Z,95988.74
2019-04-28T00:06:21.120Z,95987.22
2019-04-28T00:08:52.550Z,95989.42
2019-04-28T00:11:24.250Z,95996.38
2019-04-28T00:13:56.136Z,95992.32
2019-04-28T00:16:27.543Z,95999.77
2019-04-28T00:19:00.923Z,95998.01
2019-04-28T00:21:57.099Z,96002.56
2019-04-28T00:24:46.109Z,95996.97
2019-04-28T00:27:18.567Z,95994.19
2019-04-28T00:29:51.853Z,95999.19
2019-04-28T00:32:23.119Z,96009.41
2019-04-28T00:34:54.529Z,96008.83
2019-04-28T00:37:32.482Z,96016.27
2019-04-28T00:40:04.568Z,96016.27
2019-04-28T00:42:35.921Z,96012.78
2019-04-28T00:45:08.922Z,96030.84
2019-04-28T00:47:43.689Z,96031.15
2019-04-28T00:50:14.998Z,96041.83
2019-04-28T00:52:46.256Z,96046.23
2019-04-28T00:55:17.693Z,96051.63
2019-04-28T00:57:50.840Z,96063.28
2019-04-28T01:00:23.484Z,96067.48
2019-04-28T01:02:54.714Z,96067.37
2019-04-28T01:05:26.378Z,96073.76
2019-04-28T01:07:57.886Z,96079.55
2019-04-28T01:10:30.873Z,96082.33
2019-04-28T01:13:02.885Z,96078.64
2019-04-28T01:15:41.192Z,96078.13
2019-04-28T01:18:30.356Z,96080.97
2019-04-28T01:21:02.076Z,96080.37
2019-04-28T01:23:33.719Z,96083.14
2019-04-28T01:26:05.352Z,96089.88
2019-04-28T01:28:36.614Z,96090.28
2019-04-28T01:31:26.913Z,96085.78
2019-04-28T01:34:17.542Z,96089.33
2019-04-28T01:36:49.555Z,96088.47
2019-04-28T01:39:21.911Z,96096.21
2019-04-28T01:41:53.365Z,96096.28
2019-04-28T01:44:24.676Z,96095.53
2019-04-28T01:46:56.014Z,96094.84
2019-04-28T01:49:29.352Z,96089.05
2019-04-28T01:52:01.321Z,96087.45
2019-04-28T01:54:32.702Z,96081.19
2019-04-28T01:57:04.155Z,96075.52
2019-04-28T01:59:35.637Z,96087.51
2019-04-28T02:02:09.964Z,96092.27
2019-04-28T02:04:41.942Z,96094.77
2019-04-28T02:07:13.334Z,96095.59
2019-04-28T02:09:44.583Z,96094.27
2019-04-28T02:12:15.804Z,96097.42
2019-04-28T02:14:49.988Z,96096.60
2019-04-28T02:17:22.701Z,96097.50
2019-04-28T02:19:54.091Z,96100.31
2019-04-28T02:22:33.849Z,96100.10
2019-04-28T02:25:05.484Z,96090.44
2019-04-28T02:27:37.406Z,96087.61
2019-04-28T02:30:11.494Z,96082.33
2019-04-28T02:32:43.336Z,96083.35
2019-04-28T02:35:14.873Z,96084.73
2019-04-28T02:37:46.796Z,96078.79
2019-04-28T02:40:20.774Z,96077.47
2019-04-28T02:42:52.742Z,96081.90
2019-04-28T02:45:24.011Z,96079.67
2019-04-28T02:48:00.963Z,96079.19
2019-04-28T02:50:54.496Z,96079.67
2019-04-28T02:53:33.147Z,96086.00
2019-04-28T02:56:01.385Z,96084.72
2019-04-28T02:58:33.163Z,96082.89
2019-04-28T03:03:36.428Z,96085.55
2019-04-28T03:06:10.849Z,96082.30
2019-04-28T03:08:41.899Z,96088.78
2019-04-28T03:11:13.249Z,96093.39
2019-04-28T03:13:44.615Z,96089.66
2019-04-28T03:16:16.212Z,96092.50
2019-04-28T03:18:47.839Z,96098.04
2019-04-28T03:21:21.393Z,96094.21
2019-04-28T03:23:52.104Z,96096.42
2019-04-28T03:26:33.416Z,96103.20
2019-04-28T03:29:27.497Z,96099.77
2019-04-28T03:32:39.962Z,96115.34
2019-04-28T03:35:03.129Z,96112.84
2019-04-28T03:37:32.588Z,96125.89
2019-04-28T03:40:04.107Z,96121.61
2019-04-28T03:42:35.940Z,96126.45
2019-04-28T03:45:13.433Z,96125.39
2019-04-28T03:47:44.893Z,96117.62
2019-04-28T03:50:16.353Z,96125.78
2019-04-28T03:52:47.748Z,96125.28
2019-04-28T03:55:21.308Z,96123.84
2019-04-28T03:57:52.465Z,96131.19
2019-04-28T04:00:24.150Z,96122.22
2019-04-28T04:02:55.801Z,96120.09
2019-04-28T04:05:27.125Z,96113.08
2019-04-28T04:08:00.828Z,96117.39
2019-04-28T04:10:47.029Z,96123.50
2019-04-28T04:13:24.362Z,96120.66
2019-04-28T04:16:07.475Z,96121.00
2019-04-28T04:18:47.278Z,96108.08
2019-04-28T04:21:21.169Z,96118.39
2019-04-28T04:23:51.847Z,96107.89
2019-04-28T04:26:23.160Z,96111.05
2019-04-28T04:28:54.790Z,96115.65
2019-04-28T04:31:28.078Z,96123.70
2019-04-28T04:34:02.604Z,96117.02
2019-04-28T04:36:33.311Z,96116.56
2019-04-28T04:39:06.305Z,96117.88
2019-04-28T04:41:37.699Z,96123.77
2019-04-28T04:44:11.269Z,96134.28
2019-04-28T04:46:42.799Z,96133.14
2019-04-28T04:49:14.245Z,96132.98
2019-04-28T04:51:45.674Z,96144.17
2019-04-28T04:54:17.172Z,96143.61
2019-04-28T04:56:50.129Z,96142.07
2019-04-28T04:59:21.656Z,96141.41
2019-04-28T05:02:09.940Z,96146.73
2019-04-28T05:04:50.644Z,96154.28
2019-04-28T05:07:21.905Z,96155.23
2019-04-28T05:09:53.448Z,96156.86
2019-04-28T05:12:24.690Z,96157.90
2019-04-28T05:14:56.140Z,96160.91
2019-04-28T05:17:27.605Z,96150.30
2019-04-28T05:20:01.491Z,96157.08
2019-04-28T05:22:35.994Z,96163.72
2019-04-28T05:25:12.138Z,96153.03
2019-04-28T05:27:43.809Z,96166.67
2019-04-28T05:30:15.411Z,96169.23
2019-04-28T05:32:55.401Z,96181.89
2019-04-28T05:35:21.957Z,96190.10
2019-04-28T05:37:52.940Z,96187.20
2019-04-28T05:40:24.264Z,96180.00
2019-04-28T05:43:00.799Z,96190.50
2019-04-28T05:45:32.740Z,96180.72
2019-04-28T05:48:03.981Z,96183.34
2019-04-28T05:50:40.928Z,96189.09
2019-04-28T05:53:21.746Z,96186.17
2019-04-28T05:56:15.211Z,96191.72
2019-04-28T05:58:54.276Z,96193.56
2019-04-28T06:01:54.326Z,96190.08
2019-04-28T06:04:30.298Z,96192.84
2019-04-28T06:07:14.958Z,96197.64
2019-04-28T06:09:50.120Z,96206.77
2019-04-28T06:12:21.997Z,96203.01
2019-04-28T06:14:53.665Z,96207.22
2019-04-28T06:17:25.089Z,96191.64
2019-04-28T06:19:56.268Z,96199.96
2019-04-28T06:22:27.498Z,96208.38
2019-04-28T06:24:58.977Z,96212.52
2019-04-28T06:27:32.680Z,96217.72
2019-04-28T06:30:03.287Z,96211.70
2019-04-28T06:32:35.067Z,96210.92
2019-04-28T06:35:06.428Z,96222.12
2019-04-28T06:37:37.657Z,96215.98
2019-04-28T06:40:08.893Z,96213.53
2019-04-28T06:42:40.191Z,96220.00
2019-04-28T06:45:11.687Z,96222.36
2019-04-28T06:47:42.916Z,96226.08
2019-04-28T06:50:14.118Z,96221.74
2019-04-28T06:52:45.368Z,96221.14
2019-04-28T06:55:16.877Z,96217.60
2019-04-28T06:57:48.489Z,96221.17
2019-04-28T07:00:19.945Z,96227.66
2019-04-28T07:02:51.149Z,96226.38
2019-04-28T07:05:34.702Z,96221.14
2019-04-28T07:08:06.115Z,96224.05
2019-04-28T07:10:37.566Z,96134.42
2019-04-28T07:13:09.065Z,96212.17
2019-04-28T07:15:40.345Z,96223.11
2019-04-28T07:18:11.727Z,96219.87
2019-04-28T07:21:02.087Z,96217.88
2019-04-28T07:23:34.656Z,96219.81
2019-04-28T07:26:06.673Z,96224.70
2019-04-28T07:28:38.220Z,96230.69
2019-04-28T07:31:09.788Z,96225.27
2019-04-28T07:33:41.159Z,96239.16
2019-04-28T07:36:12.896Z,96234.36
2019-04-28T07:38:44.483Z,96232.74
2019-04-28T07:41:15.910Z,96229.56
2019-04-28T07:43:47.161Z,96236.40
2019-04-28T07:46:18.562Z,96226.35
2019-04-28T07:48:52.419Z,96233.74
2019-04-28T07:51:24.654Z,96231.09
2019-04-28T07:54:04.965Z,96233.86
2019-04-28T07:56:36.455Z,96230.82
2019-04-28T07:59:07.947Z,96225.83
2019-04-28T08:01:39.519Z,96230.66
2019-04-28T08:04:11.934Z,96231.44
2019-04-28T08:06:44.602Z,96233.14
2019-04-28T08:09:17.818Z,96226.84
2019-04-28T08:11:49.651Z,96225.69
2019-04-28T08:14:20.836Z,96231.16
2019-04-28T08:16:52.158Z,96231.81
2019-04-28T08:19:24.018Z,96223.18
2019-04-28T08:21:56.008Z,96230.86
2019-04-28T08:24:29.847Z,96233.64
2019-04-28T08:27:01.290Z,96248.53
2019-04-28T08:29:32.701Z,96238.47
2019-04-28T08:32:14.951Z,96242.66
2019-04-28T08:34:46.570Z,96237.00
2019-04-28T08:37:17.794Z,96239.21
2019-04-28T08:39:49.043Z,96235.87
2019-04-28T08:42:20.281Z,96244.98
2019-04-28T08:44:51.660Z,96248.45
2019-04-28T08:47:23.471Z,96238.52
2019-04-28T08:49:55.273Z,96234.67
2019-04-28T08:52:26.852Z,96237.77
2019-04-28T08:54:58.126Z,96235.32
2019-04-28T08:57:29.793Z,96234.41
2019-04-28T09:00:01.105Z,96230.59
2019-04-28T09:02:32.447Z,96234.67
2019-04-28T09:05:04.510Z,96227.06
2019-04-28T09:07:35.932Z,96224.98
2019-04-28T09:10:08.220Z,96223.03
2019-04-28T09:12:40.200Z,96221.27
2019-04-28T09:15:11.753Z,96230.60
2019-04-28T09:17:43.373Z,96234.49
2019-04-28T09:20:15.085Z,96228.14
2019-04-28T09:22:46.380Z,96224.69
2019-04-28T09:25:17.895Z,96237.71
2019-04-28T09:27:50.573Z,96223.23
2019-04-28T09:30:22.072Z,96218.75
2019-04-28T09:32:53.745Z,96225.94
2019-04-28T09:35:25.201Z,96232.84
2019-04-28T09:37:56.753Z,96221.89
2019-04-28T09:40:28.421Z,96221.69
2019-04-28T09:43:21.926Z,96213.98
2019-04-28T09:46:11.936Z,96234.84
2019-04-28T09:48:43.134Z,96216.56
2019-04-28T09:51:14.933Z,96221.55
2019-04-28T09:53:46.967Z,96208.55
2019-04-28T09:56:18.436Z,96216.53
2019-04-28T09:58:49.639Z,96218.52
2019-04-28T10:01:20.839Z,96228.45
2019-04-28T10:03:52.025Z,96219.00
2019-04-28T10:06:23.680Z,96224.14
2019-04-28T10:08:55.505Z,96228.41
2019-04-28T10:11:30.612Z,96230.81
2019-04-28T10:14:02.646Z,96227.58
2019-04-28T10:16:34.132Z,96220.16
2019-04-28T10:19:05.802Z,96217.70
2019-04-28T10:21:37.124Z,96216.95
2019-04-28T10:24:08.682Z,96208.54
2019-04-28T10:26:40.667Z,96216.72
2019-04-28T10:29:13.762Z,96206.42
2019-04-28T10:31:45.866Z,96214.25
2019-04-28T10:34:17.241Z,96208.73
2019-04-28T10:40:23.865Z,96201.58
2019-04-28T10:42:55.252Z,96196.88
2019-04-28T10:45:28.549Z,96196.73
2019-04-28T10:48:00.017Z,96189.98
2019-04-28T10:50:31.506Z,96199.53
2019-04-28T10:53:02.759Z,96206.47
2019-04-28T10:55:34.697Z,96185.96
2019-04-28T10:58:07.035Z,96191.80
2019-04-28T11:00:40.897Z,96180.19
2019-04-28T11:03:12.331Z,96201.29
2019-04-28T11:05:46.257Z,96173.08
2019-04-28T11:08:32.194Z,96165.98
2019-04-28T11:11:10.951Z,96170.43
2019-04-28T11:13:42.436Z,96180.59
2019-04-28T11:16:16.584Z,96165.48
2019-04-28T11:18:48.044Z,96169.20
2019-04-28T11:21:19.311Z,96169.68
2019-04-28T11:23:51.244Z,96166.54
2019-04-28T11:26:22.796Z,96179.78
2019-04-28T11:28:54.183Z,96167.62
2019-04-28T11:31:25.563Z,96173.59
2019-04-28T11:34:14.263Z,96166.91
2019-04-28T11:36:45.523Z,96176.20
2019-04-28T11:39:22.449Z,96178.38
2019-04-28T11:41:54.040Z,96167.06
2019-04-28T11:44:26.654Z,96172.30
2019-04-28T11:46:57.927Z,96174.05
2019-04-28T11:49:29.185Z,96176.52
2019-04-28T11:52:01.165Z,96179.46
2019-04-28T11:54:32.739Z,96179.81
2019-04-28T11:57:04.079Z,96179.55
2019-04-28T11:59:35.400Z,96171.26
2019-04-28T12:02:08.118Z,96160.22
2019-04-28T12:04:39.559Z,96153.05
2019-04-28T12:07:10.859Z,96158.19
2019-04-28T12:10:05.996Z,96164.92
2019-04-28T12:12:54.310Z,96162.93
2019-04-28T12:15:44.509Z,96160.41
2019-04-28T12:18:35.820Z,96164.16
2019-04-28T12:21:07.114Z,96167.42
2019-04-28T12:23:39.412Z,96160.11
2019-04-28T12:26:11.256Z,96165.22
2019-04-28T12:28:43.153Z,96161.14
2019-04-28T12:31:16.331Z,96161.50
2019-04-28T12:33:49.606Z,96153.20
2019-04-28T12:36:22.422Z,96149.10
2019-04-28T12:38:53.934Z,96138.95
2019-04-28T12:41:25.137Z,96142.28
2019-04-28T12:43:58.267Z,96130.33
2019-04-28T12:46:29.508Z,96137.69
2019-04-28T12:49:04.365Z,96126.67
2019-04-28T12:51:36.108Z,96127.91
2019-04-28T12:54:09.269Z,96121.71
2019-04-28T12:56:40.560Z,96112.63
2019-04-28T12:59:17.833Z,96108.00
2019-04-28T13:01:59.572Z,96108.06
2019-04-28T13:04:40.781Z,96107.13
2019-04-28T13:07:12.143Z,96103.89
2019-04-28T13:09:43.525Z,96100.69
2019-04-28T13:12:14.855Z,96091.14
2019-04-28T13:14:46.748Z,96094.36
2019-04-28T13:17:19.289Z,96094.87
2019-04-28T13:19:50.925Z,96091.78
2019-04-28T13:22:22.161Z,96087.99
2019-04-28T13:24:53.682Z,96086.91
2019-04-28T13:27:25.363Z,96085.77
2019-04-28T13:29:56.908Z,96083.55
2019-04-28T13:32:28.255Z,96084.91
2019-04-28T13:35:00.051Z,96076.10
2019-04-28T13:37:31.487Z,96072.84
2019-04-28T13:40:14.417Z,96067.64
2019-04-28T13:42:52.101Z,96070.93
2019-04-28T13:45:25.363Z,96068.03
2019-04-28T13:48:03.405Z,96054.19
2019-04-28T13:50:40.946Z,96053.15
2019-04-28T13:53:20.219Z,96057.26
2019-04-28T13:55:59.288Z,96056.55
2019-04-28T13:58:38.770Z,96051.01
2019-04-28T14:01:39.725Z,96051.38
2019-04-28T14:04:36.486Z,96055.08
2019-04-28T14:07:26.449Z,96043.47
2019-04-28T14:10:16.551Z,96048.46
2019-04-28T14:12:47.774Z,96047.64
2019-04-28T14:15:20.776Z,96053.15
2019-04-28T14:17:54.134Z,96051.84
2019-04-28T14:20:27.730Z,96059.70
2019-04-28T14:23:03.324Z,96049.21
2019-04-28T14:25:37.418Z,96050.57
2019-04-28T14:28:09.006Z,96044.06
2019-04-28T14:30:40.570Z,96040.72
2019-04-28T14:33:11.848Z,96041.84
2019-04-28T14:35:44.332Z,96040.43
2019-04-28T14:38:21.505Z,96042.86
2019-04-28T14:40:53.106Z,96041.33
2019-04-28T14:43:25.862Z,96033.86
2019-04-28T14:45:57.628Z,96037.23
2019-04-28T14:48:35.577Z,96042.92
2019-04-28T14:51:13.263Z,96038.40
2019-04-28T14:53:49.708Z,96042.31
2019-04-28T14:56:20.917Z,96039.30
2019-04-28T14:58:52.613Z,96036.42
2019-04-28T15:01:49.041Z,96044.30
2019-04-28T15:04:48.366Z,96046.68
2019-04-28T15:07:38.893Z,96047.50
2019-04-28T15:10:29.920Z,96047.40
2019-04-28T15:13:01.687Z,96046.57
2019-04-28T15:15:33.251Z,96044.73
2019-04-28T15:18:04.505Z,96034.66
2019-04-28T15:20:36.102Z,96033.34
2019-04-28T15:23:07.393Z,96037.34
2019-04-28T15:25:39.747Z,96033.20
2019-04-28T15:28:11.123Z,96037.41
2019-04-28T15:30:44.043Z,96029.79
2019-04-28T15:33:18.798Z,96028.14
2019-04-28T15:35:50.189Z,96032.62
2019-04-28T15:38:21.595Z,96036.34
2019-04-28T15:40:53.640Z,96037.38
2019-04-28T15:43:24.870Z,96039.75
2019-04-28T15:45:56.787Z,96037.94
2019-04-28T15:48:28.800Z,96037.20
2019-04-28T15:51:00.075Z,96038.93
2019-04-28T15:53:32.584Z,96040.00
2019-04-28T15:56:22.046Z,96037.83
2019-04-28T15:58:53.265Z,96041.64
2019-04-28T16:01:24.702Z,96038.11
2019-04-28T16:03:56.721Z,96040.08
2019-04-28T16:06:28.749Z,96039.48
2019-04-28T16:09:01.627Z,96041.52
2019-04-28T16:11:33.102Z,96043.28
2019-04-28T16:14:04.689Z,96046.88
2019-04-28T16:16:36.292Z,96046.88
2019-04-28T16:19:07.751Z,96052.41
2019-04-28T16:21:39.370Z,96045.37
2019-04-28T16:24:10.941Z,96056.49
2019-04-28T16:26:42.256Z,96056.95
2019-04-28T16:29:13.695Z,96060.02
2019-04-28T16:31:44.998Z,96058.23
2019-04-28T16:34:16.280Z,96062.15
2019-04-28T16:36:48.098Z,96056.33
2019-04-28T16:39:19.316Z,96058.73
2019-04-28T16:41:56.248Z,96057.03
2019-04-28T16:44:41.862Z,96056.81
2019-04-28T16:47:13.468Z,96051.89
2019-04-28T16:49:44.868Z,96045.33
2019-04-28T16:52:18.340Z,96044.41
2019-04-28T16:55:08.757Z,96050.66
2019-04-28T16:57:47.587Z,96053.64
2019-04-28T17:00:25.616Z,96047.48
2019-04-28T17:02:57.709Z,96044.23
2019-04-28T17:05:29.616Z,96049.52
2019-04-28T17:08:01.221Z,96050.09
2019-04-28T17:10:32.923Z,96053.41
2019-04-28T17:13:05.034Z,96055.11
2019-04-28T17:15:36.353Z,96054.38
2019-04-28T17:18:07.817Z,96058.03
2019-04-28T17:20:39.377Z,96068.63
2019-04-28T17:23:10.792Z,96068.05
2019-04-28T17:25:42.782Z,96069.30
2019-04-28T17:28:17.715Z,96069.49
2019-04-28T17:30:49.744Z,96064.03
2019-04-28T17:33:21.155Z,96066.41
2019-04-28T17:35:52.536Z,96069.86
2019-04-28T17:38:25.308Z,96076.56
2019-04-28T17:40:56.665Z,96076.33
2019-04-28T17:43:28.037Z,96074.02
2019-04-28T17:46:00.102Z,96074.91
2019-04-28T17:48:35.058Z,96077.19
2019-04-28T17:51:06.317Z,96079.45
2019-04-28T17:53:37.622Z,96078.86
2019-04-28T17:56:08.868Z,96087.52
2019-04-28T17:58:40.349Z,96089.14
2019-04-28T18:01:48.957Z,96092.03
2019-04-28T18:04:38.495Z,96086.44
2019-04-28T18:07:13.999Z,96095.27
2019-04-28T18:09:45.222Z,96101.61
2019-04-28T18:12:16.612Z,96104.93
2019-04-28T18:14:49.853Z,96107.42
2019-04-28T18:17:46.283Z,96104.27
2019-04-28T18:20:17.939Z,96111.78
2019-04-28T18:22:49.389Z,96124.97
2019-04-28T18:25:21.311Z,96129.45
2019-04-28T18:27:52.659Z,96131.84
2019-04-28T18:30:25.718Z,96133.85
2019-04-28T18:33:07.095Z,96138.20
2019-04-28T18:35:43.333Z,96139.95
2019-04-28T18:38:34.130Z,96142.52
2019-04-28T18:41:27.666Z,96144.17
2019-04-28T18:44:09.917Z,96146.83
2019-04-28T18:46:41.163Z,96152.77
2019-04-28T18:49:12.513Z,96159.19
2019-04-28T18:51:43.859Z,96166.06
2019-04-28T18:54:15.717Z,96166.31
2019-04-28T18:56:47.240Z,96167.81
2019-04-28T18:59:18.777Z,96172.84
2019-04-28T19:02:07.853Z,96178.42
2019-04-28T19:04:39.669Z,96182.96
2019-04-28T19:07:13.325Z,96186.75
2019-04-28T19:09:54.064Z,96191.38
2019-04-28T19:12:37.309Z,96192.08
2019-04-28T19:15:26.285Z,96194.66
2019-04-28T19:18:08.773Z,96200.61
2019-04-28T19:20:40.302Z,96198.95
2019-04-28T19:23:12.101Z,96203.14
2019-04-28T19:25:45.694Z,96202.32
2019-04-28T19:28:19.736Z,96206.30
2019-04-28T19:30:52.997Z,96212.74
2019-04-28T19:33:24.380Z,96209.62
2019-04-28T19:35:55.794Z,96210.81
2019-04-28T19:38:27.360Z,96214.56
2019-04-28T19:40:59.036Z,96218.06
2019-04-28T19:43:30.308Z,96209.45
2019-04-28T19:46:04.125Z,96212.46
2019-04-28T19:48:35.325Z,96217.09
2019-04-28T19:51:06.600Z,96215.45
2019-04-28T19:53:38.234Z,96213.85
2019-04-28T19:56:15.958Z,96222.09
2019-04-28T19:58:54.706Z,96222.33
2019-04-28T20:01:28.621Z,96222.67
2019-04-28T20:03:59.840Z,96223.55
2019-04-28T20:06:31.076Z,96223.61
2019-04-28T20:09:02.289Z,96221.22
2019-04-28T20:11:33.855Z,96221.09
2019-04-28T20:14:05.159Z,96218.70
2019-04-28T20:16:36.363Z,96216.45
2019-04-28T20:19:08.112Z,96213.23
2019-04-28T20:21:39.434Z,96215.31
2019-04-28T20:24:10.735Z,96219.66
2019-04-28T20:26:42.374Z,96220.78
2019-04-28T20:29:13.745Z,96214.95
2019-04-28T20:31:45.040Z,96219.38
2019-04-28T20:34:16.448Z,96222.21
2019-04-28T20:37:07.247Z,96224.00
2019-04-28T20:39:38.870Z,96224.14
2019-04-28T20:42:28.574Z,96223.33
2019-04-28T20:45:00.243Z,96224.74
2019-04-28T20:47:31.580Z,96225.44
2019-04-28T20:50:02.819Z,96218.81
2019-04-28T20:52:34.039Z,96224.78
2019-04-28T20:55:05.380Z,96224.19
2019-04-28T20:57:39.448Z,96226.25
2019-04-28T21:00:11.050Z,96221.48
2019-04-28T21:02:42.666Z,96217.35
2019-04-28T21:05:13.858Z,96217.11
2019-04-28T21:07:45.429Z,96216.61
2019-04-28T21:10:17.047Z,96208.62
2019-04-28T21:12:48.311Z,96208.98
2019-04-28T21:15:19.493Z,96207.68
2019-04-28T21:17:50.859Z,96203.72
2019-04-28T21:20:22.044Z,96201.55
2019-04-28T21:22:53.259Z,96200.47
2019-04-28T21:25:24.635Z,96200.06
2019-04-28T21:27:55.837Z,96203.52
2019-04-28T21:30:27.047Z,96203.20
2019-04-28T21:32:58.260Z,96199.13
2019-04-28T21:35:29.716Z,96199.88
2019-04-28T21:38:01.126Z,96197.50
2019-04-28T21:40:32.754Z,96194.39
2019-04-28T21:43:19.834Z,96201.43
2019-04-28T21:46:19.281Z,96201.09
2019-04-28T21:49:00.478Z,96199.50
2019-04-28T21:51:32.232Z,96203.01
2019-04-28T21:54:03.531Z,96203.53
2019-04-28T21:56:35.610Z,96206.19
2019-04-28T21:59:06.998Z,96206.16
2019-04-28T22:01:38.693Z,96203.61
2019-04-28T22:04:10.031Z,96198.93
2019-04-28T22:06:41.495Z,96199.52
2019-04-28T22:09:13.231Z,96194.17
2019-04-28T22:11:44.640Z,96194.06
2019-04-28T22:14:15.974Z,96200.03
2019-04-28T22:16:47.513Z,96203.36
2019-04-28T22:19:19.041Z,96195.65
2019-04-28T22:21:50.709Z,96191.00
2019-04-28T22:24:30.976Z,96193.06
2019-04-28T22:27:02.307Z,96193.83
2019-04-28T22:29:33.690Z,96195.10
2019-04-28T22:32:06.180Z,96194.34
2019-04-28T22:34:39.170Z,96200.27
2019-04-28T22:37:11.954Z,96196.23
2019-04-28T22:39:47.064Z,96196.44
2019-04-28T22:42:19.455Z,96203.11
2019-04-28T22:44:51.424Z,96198.91
2019-04-28T22:47:23.143Z,96195.52
2019-04-28T22:49:57.507Z,96190.86
2019-04-28T22:52:29.836Z,96198.14
2019-04-28T22:55:19.952Z,96199.66
2019-04-28T22:58:10.356Z,96198.56
2019-04-28T23:01:09.799Z,96197.78
2019-04-28T23:03:56.243Z,96200.65
2019-04-28T23:06:27.520Z,96196.72
2019-04-28T23:08:59.098Z,96192.61
2019-04-28T23:11:31.476Z,96195.70
2019-04-28T23:14:02.662Z,96191.83
2019-04-28T23:16:33.918Z,96182.75
2019-04-28T23:19:07.234Z,96185.45
2019-04-28T23:21:53.664Z,96178.81
2019-04-28T23:24:25.541Z,96181.77
2019-04-28T23:26:56.970Z,96176.69
2019-04-28T23:29:30.641Z,96166.06
2019-04-28T23:32:02.314Z,96168.31
2019-04-28T23:34:33.607Z,96170.21
2019-04-28T23:37:04.775Z,96161.18
2019-04-28T23:39:36.098Z,96162.14
2019-04-28T23:42:22.558Z,96160.69
2019-04-28T23:44:54.059Z,96163.06
2019-04-28T23:47:25.497Z,96164.33
2019-04-28T23:49:57.468Z,96163.64
2019-04-28T23:52:53.407Z,96159.45
2019-04-28T23:55:26.005Z,96163.92
2019-04-28T23:57:57.256Z,96169.42
